sensor_id;sensor_type;location;lat;lon;timestamp;temperature;humidity
71096;DHT22;58753;49.440;11.126;2022-12-07T00:00:48;2.60;90.60
71096;DHT22;58753;49.440;11.126;2022-12-07T00:03:13;2.61;91.30
71096;DHT22;58753;49.440;11.126;2022-12-07T00:05:38;2.64;91.20
71096;DHT22;58753;49.440;11.126;2022-12-07T00:08:04;2.60;91.17
71096;DHT22;58753;49.440;11.126;2022-12-07T00:10:29;2.61;91.32
71096;DHT22;58753;49.440;11.126;2022-12-07T00:12:55;2.60;91.09
71096;DHT22;58753;49.440;11.126;2022-12-07T00:15:20;2.54;91.70
71096;DHT22;58753;49.440;11.126;2022-12-07T00:17:45;2.60;91.00
71096;DHT22;58753;49.440;11.126;2022-12-07T00:20:11;2.52;91.45
71096;DHT22;58753;49.440;11.126;2022-12-07T00:22:36;2.56;90.91
71096;DHT22;58753;49.440;11.126;2022-12-07T00:25:02;2.56;91.09
71096;DHT22;58753;49.440;11.126;2022-12-07T00:27:27;2.56;91.52
71096;DHT22;58753;49.440;11.126;2022-12-07T00:29:53;2.53;92.01
71096;DHT22;58753;49.440;11.126;2022-12-07T00:32:18;2.52;91.59
71096;DHT22;58753;49.440;11.126;2022-12-07T00:34:43;2.47;91.22
71096;DHT22;58753;49.440;11.126;2022-12-07T00:37:09;2.44;92.02
71096;DHT22;58753;49.440;11.126;2022-12-07T00:39:34;2.44;91.84
71096;DHT22;58753;49.440;11.126;2022-12-07T00:41:59;2.53;92.01
71096;DHT22;58753;49.440;11.126;2022-12-07T00:44:25;2.50;91.69
71096;DHT22;58753;49.440;11.126;2022-12-07T00:46:50;2.49;91.84
71096;DHT22;58753;49.440;11.126;2022-12-07T00:49:15;2.50;92.00
71096;DHT22;58753;49.440;11.126;2022-12-07T00:51:41;2.46;92.16
71096;DHT22;58753;49.440;11.126;2022-12-07T00:54:06;2.46;92.11
71096;DHT22;58753;49.440;11.126;2022-12-07T00:56:31;2.49;91.83
71096;DHT22;58753;49.440;11.126;2022-12-07T00:58:59;2.49;91.95
71096;DHT22;58753;49.440;11.126;2022-12-07T01:01:27;2.49;92.43
71096;DHT22;58753;49.440;11.126;2022-12-07T01:03:53;2.46;91.93
71096;DHT22;58753;49.440;11.126;2022-12-07T01:06:20;2.46;92.32
71096;DHT22;58753;49.440;11.126;2022-12-07T01:08:45;2.49;91.94
71096;DHT22;58753;49.440;11.126;2022-12-07T01:11:16;2.57;92.08
71096;DHT22;58753;49.440;11.126;2022-12-07T01:13:42;2.49;91.49
71096;DHT22;58753;49.440;11.126;2022-12-07T01:16:10;2.46;92.05
71096;DHT22;58753;49.440;11.126;2022-12-07T01:18:36;2.47;91.96
71096;DHT22;58753;49.440;11.126;2022-12-07T01:23:35;2.49;92.06
71096;DHT22;58753;49.440;11.126;2022-12-07T01:26:04;2.52;91.96
71096;DHT22;58753;49.440;11.126;2022-12-07T01:28:30;2.49;91.51
71096;DHT22;58753;49.440;11.126;2022-12-07T01:31:02;2.49;91.46
71096;DHT22;58753;49.440;11.126;2022-12-07T01:33:30;2.47;91.86
71096;DHT22;58753;49.440;11.126;2022-12-07T01:36:20;2.37;92.13
71096;DHT22;58753;49.440;11.126;2022-12-07T01:38:47;2.42;92.13
71096;DHT22;58753;49.440;11.126;2022-12-07T01:41:13;2.43;92.25
71096;DHT22;58753;49.440;11.126;2022-12-07T01:46:32;2.40;92.14
71096;DHT22;58753;49.440;11.126;2022-12-07T01:48:58;2.46;91.80
71096;DHT22;58753;49.440;11.126;2022-12-07T01:51:24;2.50;91.30
71096;DHT22;58753;49.440;11.126;2022-12-07T01:53:50;2.47;91.89
71096;DHT22;58753;49.440;11.126;2022-12-07T01:56:19;2.47;91.61
71096;DHT22;58753;49.440;11.126;2022-12-07T01:58:45;2.50;91.52
71096;DHT22;58753;49.440;11.126;2022-12-07T02:01:11;2.46;91.99
71096;DHT22;58753;49.440;11.126;2022-12-07T02:03:42;2.40;91.94
71096;DHT22;58753;49.440;11.126;2022-12-07T02:06:09;2.54;91.69
71096;DHT22;58753;49.440;11.126;2022-12-07T02:08:36;2.50;91.84
71096;DHT22;58753;49.440;11.126;2022-12-07T02:11:03;2.47;91.63
71096;DHT22;58753;49.440;11.126;2022-12-07T02:13:32;2.42;92.17
71096;DHT22;58753;49.440;11.126;2022-12-07T02:27:33;2.40;92.20
71096;DHT22;58753;49.440;11.126;2022-12-07T02:30:14;2.39;92.05
71096;DHT22;58753;49.440;11.126;2022-12-07T02:32:56;2.43;92.01
71096;DHT22;58753;49.440;11.126;2022-12-07T02:35:40;2.37;91.97
71096;DHT22;58753;49.440;11.126;2022-12-07T02:38:24;2.33;92.22
71096;DHT22;58753;49.440;11.126;2022-12-07T02:41:07;2.39;92.31
71096;DHT22;58753;49.440;11.126;2022-12-07T02:43:42;2.40;91.39
71096;DHT22;58753;49.440;11.126;2022-12-07T02:46:13;2.42;91.67
71096;DHT22;58753;49.440;11.126;2022-12-07T02:48:40;2.50;91.33
71096;DHT22;58753;49.440;11.126;2022-12-07T02:51:06;2.46;91.85
71096;DHT22;58753;49.440;11.126;2022-12-07T02:53:36;2.39;91.57
71096;DHT22;58753;49.440;11.126;2022-12-07T03:10:14;2.23;92.02
71096;DHT22;58753;49.440;11.126;2022-12-07T03:15:31;2.05;92.91
71096;DHT22;58753;49.440;11.126;2022-12-07T03:17:59;2.02;92.51
71096;DHT22;58753;49.440;11.126;2022-12-07T03:20:27;1.94;93.05
71096;DHT22;58753;49.440;11.126;2022-12-07T03:22:54;1.98;92.28
71096;DHT22;58753;49.440;11.126;2022-12-07T03:25:20;1.98;92.48
71096;DHT22;58753;49.440;11.126;2022-12-07T03:27:58;1.97;92.60
71096;DHT22;58753;49.440;11.126;2022-12-07T03:30:42;1.91;92.91
71096;DHT22;58753;49.440;11.126;2022-12-07T03:33:26;1.92;92.53
71096;DHT22;58753;49.440;11.126;2022-12-07T03:38:35;1.94;93.28
71096;DHT22;58753;49.440;11.126;2022-12-07T03:41:13;1.86;93.24
71096;DHT22;58753;49.440;11.126;2022-12-07T03:43:40;1.88;92.77
71096;DHT22;58753;49.440;11.126;2022-12-07T03:51:34;1.83;93.75
71096;DHT22;58753;49.440;11.126;2022-12-07T03:54:10;1.72;93.42
71096;DHT22;58753;49.440;11.126;2022-12-07T03:56:39;1.64;94.02
71096;DHT22;58753;49.440;11.126;2022-12-07T03:59:05;1.54;94.59
71096;DHT22;58753;49.440;11.126;2022-12-07T04:01:31;1.37;94.73
71096;DHT22;58753;49.440;11.126;2022-12-07T04:03:57;1.34;94.98
71096;DHT22;58753;49.440;11.126;2022-12-07T04:06:22;1.26;94.95
71096;DHT22;58753;49.440;11.126;2022-12-07T04:08:47;1.19;95.19
71096;DHT22;58753;49.440;11.126;2022-12-07T04:11:13;1.12;95.64
71096;DHT22;58753;49.440;11.126;2022-12-07T04:13:38;1.03;95.77
71096;DHT22;58753;49.440;11.126;2022-12-07T04:16:22;0.87;95.58
71096;DHT22;58753;49.440;11.126;2022-12-07T04:18:47;0.82;96.12
71096;DHT22;58753;49.440;11.126;2022-12-07T04:21:13;0.75;96.30
71096;DHT22;58753;49.440;11.126;2022-12-07T04:23:38;0.76;96.53
71096;DHT22;58753;49.440;11.126;2022-12-07T04:26:04;0.73;96.73
71096;DHT22;58753;49.440;11.126;2022-12-07T04:28:29;0.65;96.62
71096;DHT22;58753;49.440;11.126;2022-12-07T04:30:55;0.63;96.81
71096;DHT22;58753;49.440;11.126;2022-12-07T04:33:20;0.61;96.73
71096;DHT22;58753;49.440;11.126;2022-12-07T04:35:45;0.58;97.08
71096;DHT22;58753;49.440;11.126;2022-12-07T04:38:11;0.59;97.27
71096;DHT22;58753;49.440;11.126;2022-12-07T04:40:36;0.62;97.09
71096;DHT22;58753;49.440;11.126;2022-12-07T04:43:01;0.63;97.07
71096;DHT22;58753;49.440;11.126;2022-12-07T04:45:27;0.65;97.23
71096;DHT22;58753;49.440;11.126;2022-12-07T04:47:52;0.70;97.49
71096;DHT22;58753;49.440;11.126;2022-12-07T04:50:17;0.73;97.36
71096;DHT22;58753;49.440;11.126;2022-12-07T04:52:43;0.75;97.11
71096;DHT22;58753;49.440;11.126;2022-12-07T04:55:08;0.76;97.17
71096;DHT22;58753;49.440;11.126;2022-12-07T04:57:33;0.82;97.04
71096;DHT22;58753;49.440;11.126;2022-12-07T04:59:59;0.99;96.63
71096;DHT22;58753;49.440;11.126;2022-12-07T05:02:24;1.07;96.24
71096;DHT22;58753;49.440;11.126;2022-12-07T05:04:50;1.16;95.94
71096;DHT22;58753;49.440;11.126;2022-12-07T05:07:15;1.13;95.46
71096;DHT22;58753;49.440;11.126;2022-12-07T05:09:40;1.17;95.86
71096;DHT22;58753;49.440;11.126;2022-12-07T05:12:06;1.22;96.08
71096;DHT22;58753;49.440;11.126;2022-12-07T05:14:31;1.23;95.25
71096;DHT22;58753;49.440;11.126;2022-12-07T05:16:56;1.34;95.07
71096;DHT22;58753;49.440;11.126;2022-12-07T05:19:22;1.34;94.81
71096;DHT22;58753;49.440;11.126;2022-12-07T05:21:47;1.34;95.14
71096;DHT22;58753;49.440;11.126;2022-12-07T05:24:14;1.38;94.21
71096;DHT22;58753;49.440;11.126;2022-12-07T05:26:40;1.36;94.27
71096;DHT22;58753;49.440;11.126;2022-12-07T05:29:07;1.38;94.63
71096;DHT22;58753;49.440;11.126;2022-12-07T05:31:32;1.38;94.19
71096;DHT22;58753;49.440;11.126;2022-12-07T05:33:59;1.38;94.35
71096;DHT22;58753;49.440;11.126;2022-12-07T05:36:24;1.36;94.34
71096;DHT22;58753;49.440;11.126;2022-12-07T05:38:49;1.36;94.38
71096;DHT22;58753;49.440;11.126;2022-12-07T05:41:17;1.33;94.63
71096;DHT22;58753;49.440;11.126;2022-12-07T05:44:02;1.43;94.56
71096;DHT22;58753;49.440;11.126;2022-12-07T05:46:28;1.34;93.91
71096;DHT22;58753;49.440;11.126;2022-12-07T05:48:53;1.37;94.06
71096;DHT22;58753;49.440;11.126;2022-12-07T05:51:19;1.37;93.57
71096;DHT22;58753;49.440;11.126;2022-12-07T05:53:44;1.47;93.68
71096;DHT22;58753;49.440;11.126;2022-12-07T05:56:10;1.47;93.39
71096;DHT22;58753;49.440;11.126;2022-12-07T05:58:35;1.47;93.29
71096;DHT22;58753;49.440;11.126;2022-12-07T06:01:19;1.50;92.47
71096;DHT22;58753;49.440;11.126;2022-12-07T06:03:45;1.50;92.81
71096;DHT22;58753;49.440;11.126;2022-12-07T06:06:10;1.51;93.45
71096;DHT22;58753;49.440;11.126;2022-12-07T06:08:36;1.48;93.00
71096;DHT22;58753;49.440;11.126;2022-12-07T06:11:01;1.52;93.46
71096;DHT22;58753;49.440;11.126;2022-12-07T06:13:46;1.58;93.05
71096;DHT22;58753;49.440;11.126;2022-12-07T06:16:11;1.58;92.72
71096;DHT22;58753;49.440;11.126;2022-12-07T06:18:37;1.57;93.31
71096;DHT22;58753;49.440;11.126;2022-12-07T06:21:02;1.55;92.48
71096;DHT22;58753;49.440;11.126;2022-12-07T06:23:27;1.61;92.44
71096;DHT22;58753;49.440;11.126;2022-12-07T06:25:53;1.57;92.98
71096;DHT22;58753;49.440;11.126;2022-12-07T06:28:18;1.57;92.34
71096;DHT22;58753;49.440;11.126;2022-12-07T06:30:44;1.55;92.47
71096;DHT22;58753;49.440;11.126;2022-12-07T06:33:09;1.55;92.64
71096;DHT22;58753;49.440;11.126;2022-12-07T06:35:34;1.54;93.08
71096;DHT22;58753;49.440;11.126;2022-12-07T06:38:00;1.52;93.08
71096;DHT22;58753;49.440;11.126;2022-12-07T06:40:25;1.58;91.93
71096;DHT22;58753;49.440;11.126;2022-12-07T06:42:51;1.60;91.60
71096;DHT22;58753;49.440;11.126;2022-12-07T06:45:16;1.61;92.28
71096;DHT22;58753;49.440;11.126;2022-12-07T06:47:41;1.67;91.46
71096;DHT22;58753;49.440;11.126;2022-12-07T06:50:07;1.64;91.91
71096;DHT22;58753;49.440;11.126;2022-12-07T06:52:33;1.69;90.95
71096;DHT22;58753;49.440;11.126;2022-12-07T06:54:59;1.75;91.34
71096;DHT22;58753;49.440;11.126;2022-12-07T06:57:24;1.79;91.02
71096;DHT22;58753;49.440;11.126;2022-12-07T06:59:50;1.77;90.69
71096;DHT22;58753;49.440;11.126;2022-12-07T07:02:15;1.72;91.72
71096;DHT22;58753;49.440;11.126;2022-12-07T07:04:41;1.71;91.65
71096;DHT22;58753;49.440;11.126;2022-12-07T07:07:07;1.69;91.95
71096;DHT22;58753;49.440;11.126;2022-12-07T07:09:32;1.74;91.57
71096;DHT22;58753;49.440;11.126;2022-12-07T07:11:57;1.68;91.95
71096;DHT22;58753;49.440;11.126;2022-12-07T07:14:23;1.71;92.10
71096;DHT22;58753;49.440;11.126;2022-12-07T07:16:48;1.71;92.26
71096;DHT22;58753;49.440;11.126;2022-12-07T07:19:14;1.74;92.29
71096;DHT22;58753;49.440;11.126;2022-12-07T07:22:05;1.72;91.87
71096;DHT22;58753;49.440;11.126;2022-12-07T07:24:46;1.72;91.85
71096;DHT22;58753;49.440;11.126;2022-12-07T07:27:11;1.69;91.75
71096;DHT22;58753;49.440;11.126;2022-12-07T07:29:36;1.75;92.24
71096;DHT22;58753;49.440;11.126;2022-12-07T07:32:04;1.77;92.05
71096;DHT22;58753;49.440;11.126;2022-12-07T07:34:31;1.79;91.70
71096;DHT22;58753;49.440;11.126;2022-12-07T07:36:56;1.79;91.17
71096;DHT22;58753;49.440;11.126;2022-12-07T07:39:22;1.83;91.42
71096;DHT22;58753;49.440;11.126;2022-12-07T07:41:47;1.88;91.73
71096;DHT22;58753;49.440;11.126;2022-12-07T07:44:13;1.91;91.30
71096;DHT22;58753;49.440;11.126;2022-12-07T07:46:38;2.03;89.79
71096;DHT22;58753;49.440;11.126;2022-12-07T07:49:04;2.12;89.06
71096;DHT22;58753;49.440;11.126;2022-12-07T07:51:29;2.15;88.93
71096;DHT22;58753;49.440;11.126;2022-12-07T07:53:55;2.21;88.87
71096;DHT22;58753;49.440;11.126;2022-12-07T07:56:28;2.22;89.13
71096;DHT22;58753;49.440;11.126;2022-12-07T07:58:54;2.22;89.20
71096;DHT22;58753;49.440;11.126;2022-12-07T08:01:19;2.21;89.39
71096;DHT22;58753;49.440;11.126;2022-12-07T08:03:46;2.29;88.69
71096;DHT22;58753;49.440;11.126;2022-12-07T08:06:11;2.34;88.83
71096;DHT22;58753;49.440;11.126;2022-12-07T08:08:39;2.42;88.73
71096;DHT22;58753;49.440;11.126;2022-12-07T08:11:06;2.39;88.60
71096;DHT22;58753;49.440;11.126;2022-12-07T08:13:37;2.40;89.00
71096;DHT22;58753;49.440;11.126;2022-12-07T08:16:07;2.49;88.60
71096;DHT22;58753;49.440;11.126;2022-12-07T08:18:38;2.52;88.14
71096;DHT22;58753;49.440;11.126;2022-12-07T08:21:11;2.56;87.75
71096;DHT22;58753;49.440;11.126;2022-12-07T08:23:37;2.57;88.23
71096;DHT22;58753;49.440;11.126;2022-12-07T08:26:14;2.57;87.52
71096;DHT22;58753;49.440;11.126;2022-12-07T08:28:44;2.53;88.01
71096;DHT22;58753;49.440;11.126;2022-12-07T08:31:16;2.57;87.50
71096;DHT22;58753;49.440;11.126;2022-12-07T08:33:45;2.58;87.98
71096;DHT22;58753;49.440;11.126;2022-12-07T08:36:14;2.57;88.37
71096;DHT22;58753;49.440;11.126;2022-12-07T08:38:42;2.60;88.64
71096;DHT22;58753;49.440;11.126;2022-12-07T08:41:10;2.64;87.93
71096;DHT22;58753;49.440;11.126;2022-12-07T08:43:36;2.70;87.72
71096;DHT22;58753;49.440;11.126;2022-12-07T08:49:26;2.72;87.97
71096;DHT22;58753;49.440;11.126;2022-12-07T08:51:46;2.70;87.73
71096;DHT22;58753;49.440;11.126;2022-12-07T08:54:16;2.77;88.12
71096;DHT22;58753;49.440;11.126;2022-12-07T08:56:46;2.76;87.57
71096;DHT22;58753;49.440;11.126;2022-12-07T08:59:20;2.85;86.84
71096;DHT22;58753;49.440;11.126;2022-12-07T09:01:49;2.87;86.87
71096;DHT22;58753;49.440;11.126;2022-12-07T09:04:14;2.84;86.58
71096;DHT22;58753;49.440;11.126;2022-12-07T09:06:41;2.79;86.48
71096;DHT22;58753;49.440;11.126;2022-12-07T09:09:07;2.81;86.87
71096;DHT22;58753;49.440;11.126;2022-12-07T09:11:36;2.88;86.87
71096;DHT22;58753;49.440;11.126;2022-12-07T09:14:04;2.88;86.13
71096;DHT22;58753;49.440;11.126;2022-12-07T09:16:29;2.85;86.64
71096;DHT22;58753;49.440;11.126;2022-12-07T09:18:55;2.84;86.93
71096;DHT22;58753;49.440;11.126;2022-12-07T09:21:26;2.90;86.32
71096;DHT22;58753;49.440;11.126;2022-12-07T09:23:54;2.90;86.55
71096;DHT22;58753;49.440;11.126;2022-12-07T09:26:19;2.84;86.69
71096;DHT22;58753;49.440;11.126;2022-12-07T09:28:47;2.76;88.13
71096;DHT22;58753;49.440;11.126;2022-12-07T09:31:12;2.63;88.95
71096;DHT22;58753;49.440;11.126;2022-12-07T09:33:38;2.67;88.87
71096;DHT22;58753;49.440;11.126;2022-12-07T09:36:07;2.66;88.11
71096;DHT22;58753;49.440;11.126;2022-12-07T09:38:37;2.76;88.13
71096;DHT22;58753;49.440;11.126;2022-12-07T09:41:09;2.72;88.24
71096;DHT22;58753;49.440;11.126;2022-12-07T09:43:36;2.73;88.45
71096;DHT22;58753;49.440;11.126;2022-12-07T09:46:04;2.70;88.54
71096;DHT22;58753;49.440;11.126;2022-12-07T09:48:34;2.73;88.46
71096;DHT22;58753;49.440;11.126;2022-12-07T09:51:20;2.81;88.24
71096;DHT22;58753;49.440;11.126;2022-12-07T09:53:50;2.72;88.45
71096;DHT22;58753;49.440;11.126;2022-12-07T09:56:18;2.83;88.58
71096;DHT22;58753;49.440;11.126;2022-12-07T09:58:47;2.76;88.51
71096;DHT22;58753;49.440;11.126;2022-12-07T10:04:17;2.64;88.96
71096;DHT22;58753;49.440;11.126;2022-12-07T10:06:46;2.66;89.62
71096;DHT22;58753;49.440;11.126;2022-12-07T10:09:14;2.63;90.06
71096;DHT22;58753;49.440;11.126;2022-12-07T10:14:35;2.68;89.54
71096;DHT22;58753;49.440;11.126;2022-12-07T10:17:01;2.74;89.50
71096;DHT22;58753;49.440;11.126;2022-12-07T10:19:32;2.81;89.58
71096;DHT22;58753;49.440;11.126;2022-12-07T10:22:12;2.80;89.06
71096;DHT22;58753;49.440;11.126;2022-12-07T10:24:43;2.87;88.36
71096;DHT22;58753;49.440;11.126;2022-12-07T10:27:26;2.94;89.12
71096;DHT22;58753;49.440;11.126;2022-12-07T10:29:54;3.01;87.91
71096;DHT22;58753;49.440;11.126;2022-12-07T10:34:45;3.05;87.39
71096;DHT22;58753;49.440;11.126;2022-12-07T10:39:52;3.11;87.03
71096;DHT22;58753;49.440;11.126;2022-12-07T10:42:28;3.17;86.88
71096;DHT22;58753;49.440;11.126;2022-12-07T10:45:14;3.24;87.19
71096;DHT22;58753;49.440;11.126;2022-12-07T10:47:52;3.18;87.70
71096;DHT22;58753;49.440;11.126;2022-12-07T11:07:39;3.39;87.01
71096;DHT22;58753;49.440;11.126;2022-12-07T11:10:28;3.34;86.61
71096;DHT22;58753;49.440;11.126;2022-12-07T11:21:38;3.43;87.08
71096;DHT22;58753;49.440;11.126;2022-12-07T11:24:22;3.40;86.93
71096;DHT22;58753;49.440;11.126;2022-12-07T11:38:20;3.46;87.50
71096;DHT22;58753;49.440;11.126;2022-12-07T11:40:49;3.48;87.86
71096;DHT22;58753;49.440;11.126;2022-12-07T11:43:26;3.46;87.51
71096;DHT22;58753;49.440;11.126;2022-12-07T11:46:04;3.56;87.44
71096;DHT22;58753;49.440;11.126;2022-12-07T11:48:37;3.56;87.41
71096;DHT22;58753;49.440;11.126;2022-12-07T11:51:11;3.58;87.28
71096;DHT22;58753;49.440;11.126;2022-12-07T11:54:14;3.56;87.16
71096;DHT22;58753;49.440;11.126;2022-12-07T11:56:43;3.51;87.23
71096;DHT22;58753;49.440;11.126;2022-12-07T11:59:13;3.56;87.52
71096;DHT22;58753;49.440;11.126;2022-12-07T12:06:54;3.56;87.44
71096;DHT22;58753;49.440;11.126;2022-12-07T12:14:57;3.49;87.62
71096;DHT22;58753;49.440;11.126;2022-12-07T12:22:33;3.46;87.72
71096;DHT22;58753;49.440;11.126;2022-12-07T12:25:05;3.43;87.68
71096;DHT22;58753;49.440;11.126;2022-12-07T12:27:34;3.45;87.75
71096;DHT22;58753;49.440;11.126;2022-12-07T12:32:49;3.51;87.39
71096;DHT22;58753;49.440;11.126;2022-12-07T12:35:35;3.48;87.50
71096;DHT22;58753;49.440;11.126;2022-12-07T12:38:33;3.54;87.33
71096;DHT22;58753;49.440;11.126;2022-12-07T12:44:02;3.54;86.91
71096;DHT22;58753;49.440;11.126;2022-12-07T12:54:23;3.51;87.17
71096;DHT22;58753;49.440;11.126;2022-12-07T12:56:59;3.49;87.36
71096;DHT22;58753;49.440;11.126;2022-12-07T12:59:29;3.46;87.32
71096;DHT22;58753;49.440;11.126;2022-12-07T13:04:54;3.52;86.73
71096;DHT22;58753;49.440;11.126;2022-12-07T13:10:04;3.51;86.86
71096;DHT22;58753;49.440;11.126;2022-12-07T13:12:40;3.46;87.37
71096;DHT22;58753;49.440;11.126;2022-12-07T13:28:49;3.46;88.08
71096;DHT22;58753;49.440;11.126;2022-12-07T13:33:47;3.36;88.76
71096;DHT22;58753;49.440;11.126;2022-12-07T13:36:25;3.34;89.02
71096;DHT22;58753;49.440;11.126;2022-12-07T13:38:59;3.28;89.20
71096;DHT22;58753;49.440;11.126;2022-12-07T13:41:29;3.34;88.55
71096;DHT22;58753;49.440;11.126;2022-12-07T13:44:11;3.32;88.90
71096;DHT22;58753;49.440;11.126;2022-12-07T13:47:00;3.35;88.87
71096;DHT22;58753;49.440;11.126;2022-12-07T13:49:31;3.34;88.62
71096;DHT22;58753;49.440;11.126;2022-12-07T13:54:49;3.32;89.65
71096;DHT22;58753;49.440;11.126;2022-12-07T13:57:16;3.40;88.79
71096;DHT22;58753;49.440;11.126;2022-12-07T13:59:43;3.34;89.32
71096;DHT22;58753;49.440;11.126;2022-12-07T14:02:27;3.34;89.76
71096;DHT22;58753;49.440;11.126;2022-12-07T14:05:12;3.35;89.29
71096;DHT22;58753;49.440;11.126;2022-12-07T14:08:21;3.32;89.16
71096;DHT22;58753;49.440;11.126;2022-12-07T14:11:02;3.35;89.53
71096;DHT22;58753;49.440;11.126;2022-12-07T14:13:37;3.35;88.99
71096;DHT22;58753;49.440;11.126;2022-12-07T14:18:56;3.35;88.80
71096;DHT22;58753;49.440;11.126;2022-12-07T14:21:27;3.36;89.23
71096;DHT22;58753;49.440;11.126;2022-12-07T14:26:27;3.32;88.74
71096;DHT22;58753;49.440;11.126;2022-12-07T14:29:18;3.24;88.99
71096;DHT22;58753;49.440;11.126;2022-12-07T14:31:44;3.25;88.60
71096;DHT22;58753;49.440;11.126;2022-12-07T14:34:12;3.24;88.31
71096;DHT22;58753;49.440;11.126;2022-12-07T14:36:39;3.25;89.12
71096;DHT22;58753;49.440;11.126;2022-12-07T14:39:05;3.25;89.39
71096;DHT22;58753;49.440;11.126;2022-12-07T14:41:35;3.29;88.37
71096;DHT22;58753;49.440;11.126;2022-12-07T14:44:19;3.31;88.30
71096;DHT22;58753;49.440;11.126;2022-12-07T14:46:46;3.29;88.85
71096;DHT22;58753;49.440;11.126;2022-12-07T14:49:11;3.29;88.69
71096;DHT22;58753;49.440;11.126;2022-12-07T14:51:39;3.34;88.12
71096;DHT22;58753;49.440;11.126;2022-12-07T14:54:14;3.31;88.61
71096;DHT22;58753;49.440;11.126;2022-12-07T14:56:43;3.28;90.08
71096;DHT22;58753;49.440;11.126;2022-12-07T14:59:10;3.29;88.74
71096;DHT22;58753;49.440;11.126;2022-12-07T15:01:36;3.27;89.00
71096;DHT22;58753;49.440;11.126;2022-12-07T15:04:01;3.22;89.77
71096;DHT22;58753;49.440;11.126;2022-12-07T15:06:30;3.18;90.31
71096;DHT22;58753;49.440;11.126;2022-12-07T15:08:55;3.17;90.82
71096;DHT22;58753;49.440;11.126;2022-12-07T15:11:20;3.04;91.05
71096;DHT22;58753;49.440;11.126;2022-12-07T15:13:46;2.84;90.62
71096;DHT22;58753;49.440;11.126;2022-12-07T15:16:32;2.77;91.03
71096;DHT22;58753;49.440;11.126;2022-12-07T15:18:58;2.72;92.34
71096;DHT22;58753;49.440;11.126;2022-12-07T15:21:23;2.70;92.53
71096;DHT22;58753;49.440;11.126;2022-12-07T15:23:53;2.72;92.27
71096;DHT22;58753;49.440;11.126;2022-12-07T15:26:19;2.73;91.97
71096;DHT22;58753;49.440;11.126;2022-12-07T15:28:47;2.83;91.24
71096;DHT22;58753;49.440;11.126;2022-12-07T15:31:13;2.84;91.33
71096;DHT22;58753;49.440;11.126;2022-12-07T15:33:39;2.88;91.11
71096;DHT22;58753;49.440;11.126;2022-12-07T15:36:05;2.90;92.18
71096;DHT22;58753;49.440;11.126;2022-12-07T15:38:31;2.91;91.17
71096;DHT22;58753;49.440;11.126;2022-12-07T15:40:58;2.91;92.03
71096;DHT22;58753;49.440;11.126;2022-12-07T15:43:29;3.00;90.19
71096;DHT22;58753;49.440;11.126;2022-12-07T15:46:13;3.01;90.64
71096;DHT22;58753;49.440;11.126;2022-12-07T15:48:41;3.01;90.42
71096;DHT22;58753;49.440;11.126;2022-12-07T15:51:08;3.01;90.22
71096;DHT22;58753;49.440;11.126;2022-12-07T15:53:34;3.04;89.51
71096;DHT22;58753;49.440;11.126;2022-12-07T15:56:05;3.14;88.64
71096;DHT22;58753;49.440;11.126;2022-12-07T15:58:30;3.11;88.86
71096;DHT22;58753;49.440;11.126;2022-12-07T16:00:56;3.07;89.35
71096;DHT22;58753;49.440;11.126;2022-12-07T16:03:21;3.07;89.25
71096;DHT22;58753;49.440;11.126;2022-12-07T16:05:53;3.11;89.15
71096;DHT22;58753;49.440;11.126;2022-12-07T16:08:18;3.05;89.64
71096;DHT22;58753;49.440;11.126;2022-12-07T16:10:46;3.05;89.58
71096;DHT22;58753;49.440;11.126;2022-12-07T16:13:14;3.05;90.05
71096;DHT22;58753;49.440;11.126;2022-12-07T16:15:40;3.08;88.91
71096;DHT22;58753;49.440;11.126;2022-12-07T16:18:08;3.18;88.27
71096;DHT22;58753;49.440;11.126;2022-12-07T16:20:36;3.18;88.72
71096;DHT22;58753;49.440;11.126;2022-12-07T16:23:01;3.18;88.96
71096;DHT22;58753;49.440;11.126;2022-12-07T16:25:29;3.12;88.73
71096;DHT22;58753;49.440;11.126;2022-12-07T16:27:58;3.05;89.51
71096;DHT22;58753;49.440;11.126;2022-12-07T16:30:24;3.08;89.06
71096;DHT22;58753;49.440;11.126;2022-12-07T16:32:52;3.03;89.25
71096;DHT22;58753;49.440;11.126;2022-12-07T16:35:18;2.98;89.97
71096;DHT22;58753;49.440;11.126;2022-12-07T16:37:43;2.98;89.25
71096;DHT22;58753;49.440;11.126;2022-12-07T16:40:10;3.01;89.93
71096;DHT22;58753;49.440;11.126;2022-12-07T16:42:36;2.83;92.11
71096;DHT22;58753;49.440;11.126;2022-12-07T16:45:02;2.74;92.85
71096;DHT22;58753;49.440;11.126;2022-12-07T16:47:30;2.66;93.19
71096;DHT22;58753;49.440;11.126;2022-12-07T16:49:56;2.61;94.16
71096;DHT22;58753;49.440;11.126;2022-12-07T16:52:24;2.58;93.38
71096;DHT22;58753;49.440;11.126;2022-12-07T16:54:51;2.53;94.11
71096;DHT22;58753;49.440;11.126;2022-12-07T16:57:22;2.52;94.37
71096;DHT22;58753;49.440;11.126;2022-12-07T16:59:51;2.53;95.03
71096;DHT22;58753;49.440;11.126;2022-12-07T17:02:17;2.56;93.76
71096;DHT22;58753;49.440;11.126;2022-12-07T17:04:46;2.50;94.76
71096;DHT22;58753;49.440;11.126;2022-12-07T17:07:11;2.47;94.98
71096;DHT22;58753;49.440;11.126;2022-12-07T17:09:39;2.46;95.37
71096;DHT22;58753;49.440;11.126;2022-12-07T17:12:07;2.46;94.56
71096;DHT22;58753;49.440;11.126;2022-12-07T17:14:35;2.44;95.84
71096;DHT22;58753;49.440;11.126;2022-12-07T17:17:19;2.44;94.46
71096;DHT22;58753;49.440;11.126;2022-12-07T17:19:44;2.47;94.78
71096;DHT22;58753;49.440;11.126;2022-12-07T17:22:10;2.42;96.10
71096;DHT22;58753;49.440;11.126;2022-12-07T17:24:40;2.39;95.70
71096;DHT22;58753;49.440;11.126;2022-12-07T17:27:06;2.37;96.29
71096;DHT22;58753;49.440;11.126;2022-12-07T17:29:31;2.34;95.15
71096;DHT22;58753;49.440;11.126;2022-12-07T17:31:56;2.36;94.86
71096;DHT22;58753;49.440;11.126;2022-12-07T17:34:25;2.34;95.29
71096;DHT22;58753;49.440;11.126;2022-12-07T17:36:51;2.29;95.64
71096;DHT22;58753;49.440;11.126;2022-12-07T17:39:18;2.28;95.93
71096;DHT22;58753;49.440;11.126;2022-12-07T17:41:45;2.32;94.72
71096;DHT22;58753;49.440;11.126;2022-12-07T17:44:32;2.32;95.66
71096;DHT22;58753;49.440;11.126;2022-12-07T17:47:00;2.32;93.86
71096;DHT22;58753;49.440;11.126;2022-12-07T17:49:30;2.29;95.23
71096;DHT22;58753;49.440;11.126;2022-12-07T17:51:56;2.30;95.63
71096;DHT22;58753;49.440;11.126;2022-12-07T17:54:40;2.25;95.97
71096;DHT22;58753;49.440;11.126;2022-12-07T17:57:09;2.23;94.78
71096;DHT22;58753;49.440;11.126;2022-12-07T17:59:34;2.21;95.24
71096;DHT22;58753;49.440;11.126;2022-12-07T18:02:03;2.18;95.47
71096;DHT22;58753;49.440;11.126;2022-12-07T18:04:31;2.19;95.22
71096;DHT22;58753;49.440;11.126;2022-12-07T18:07:03;2.28;93.49
71096;DHT22;58753;49.440;11.126;2022-12-07T18:09:31;2.28;93.62
71096;DHT22;58753;49.440;11.126;2022-12-07T18:11:56;2.26;94.39
71096;DHT22;58753;49.440;11.126;2022-12-07T18:14:21;2.23;95.04